createdAt,value
2017-09-25T00:02:20.199Z,101880.47
2017-09-25T00:04:47.886Z,101880.05
2017-09-25T00:07:15.496Z,101873.32
2017-09-25T00:09:43.201Z,101877.86
2017-09-25T00:12:10.867Z,101870.20
2017-09-25T00:14:38.446Z,101877.86
2017-09-25T00:17:06.059Z,101881.48
2017-09-25T00:19:33.703Z,101881.48
2017-09-25T00:22:01.616Z,101881.06
2017-09-25T00:24:29.249Z,101873.92
2017-09-25T00:26:56.840Z,101869.97
2017-09-25T00:29:24.432Z,101872.33
2017-09-25T00:31:52.036Z,101878.13
2017-09-25T00:34:19.617Z,101871.08
2017-09-25T00:36:47.257Z,101866.70
2017-09-25T00:39:14.836Z,101864.86
2017-09-25T00:41:42.411Z,101858.22
2017-09-25T00:44:10.120Z,101856.95
2017-09-25T00:46:37.721Z,101855.91
2017-09-25T00:49:05.603Z,101854.74
2017-09-25T00:51:33.246Z,101851.16
2017-09-25T00:54:01.127Z,101850.95
2017-09-25T00:56:28.787Z,101846.43
2017-09-25T00:58:56.400Z,101856.95
2017-09-25T01:01:36.204Z,101850.02
2017-09-25T01:04:15.850Z,101854.73
2017-09-25T01:06:43.475Z,101863.32
2017-09-25T01:09:11.055Z,101860.30
2017-09-25T01:11:38.939Z,101862.33
2017-09-25T01:14:06.561Z,101860.86
2017-09-25T01:16:34.141Z,101867.02
2017-09-25T01:19:01.760Z,101863.58
2017-09-25T01:21:29.362Z,101865.52
2017-09-25T01:23:56.948Z,101863.25
2017-09-25T01:26:24.569Z,101863.22
2017-09-25T01:28:52.492Z,101853.61
2017-09-25T01:31:20.129Z,101854.00
2017-09-25T01:33:48.008Z,101847.54
2017-09-25T01:36:15.584Z,101846.70
2017-09-25T01:38:43.196Z,101853.06
2017-09-25T01:41:10.773Z,101859.27
2017-09-25T01:43:38.402Z,101856.59
2017-09-25T01:46:05.979Z,101854.53
2017-09-25T01:48:33.883Z,101851.57
2017-09-25T01:51:01.496Z,101850.68
2017-09-25T01:53:29.066Z,101850.92
2017-09-25T01:55:56.687Z,101849.59
2017-09-25T01:58:24.287Z,101846.80
2017-09-25T02:00:51.866Z,101847.23
2017-09-25T02:03:19.480Z,101840.37
2017-09-25T02:05:47.069Z,101839.28
2017-09-25T02:08:14.700Z,101835.98
2017-09-25T02:10:42.287Z,101828.75
2017-09-25T02:13:10.208Z,101829.17
2017-09-25T02:15:38.367Z,101818.83
2017-09-25T02:18:05.965Z,101815.24
2017-09-25T02:20:33.636Z,101813.36
2017-09-25T02:23:01.215Z,101817.95
2017-09-25T02:25:29.146Z,101817.95
2017-09-25T02:27:57.016Z,101816.19
2017-09-25T02:30:24.631Z,101816.14
2017-09-25T02:32:52.269Z,101822.36
2017-09-25T02:35:19.838Z,101823.13
2017-09-25T02:37:47.500Z,101819.25
2017-09-25T02:40:15.120Z,101820.77
2017-09-25T02:42:42.704Z,101820.09
2017-09-25T02:45:10.332Z,101810.85
2017-09-25T02:47:37.923Z,101820.84
2017-09-25T02:50:05.556Z,101816.17
2017-09-25T02:52:33.175Z,101810.34
2017-09-25T02:55:00.775Z,101813.95
2017-09-25T02:57:28.403Z,101807.83
2017-09-25T02:59:55.994Z,101807.17
2017-09-25T03:02:23.588Z,101799.61
2017-09-25T03:04:51.230Z,101795.09
2017-09-25T03:07:18.812Z,101795.96
2017-09-25T03:09:46.438Z,101790.64
2017-09-25T03:12:14.015Z,101783.49
2017-09-25T03:14:41.594Z,101786.69
2017-09-25T03:17:09.199Z,101783.25
2017-09-25T03:19:36.796Z,101785.11
2017-09-25T03:22:04.416Z,101776.53
2017-09-25T03:24:32.015Z,101775.91
2017-09-25T03:26:59.604Z,101771.33
2017-09-25T03:29:27.234Z,101769.86
2017-09-25T03:31:54.818Z,101773.15
2017-09-25T03:34:22.458Z,101774.41
2017-09-25T03:36:50.043Z,101772.13
2017-09-25T03:39:17.706Z,101771.21
2017-09-25T03:41:45.671Z,101766.84
2017-09-25T03:44:13.264Z,101764.58
2017-09-25T03:46:40.891Z,101769.12
2017-09-25T03:49:08.481Z,101770.55
2017-09-25T03:51:36.098Z,101770.88
2017-09-25T03:54:03.719Z,101770.38
2017-09-25T03:56:31.300Z,101772.05
2017-09-25T03:58:59.216Z,101770.11
2017-09-25T04:01:27.084Z,101772.67
2017-09-25T04:03:54.671Z,101768.78
2017-09-25T04:06:22.609Z,101775.28
2017-09-25T04:08:50.199Z,101770.41
2017-09-25T04:11:17.821Z,101769.48
2017-09-25T04:13:45.417Z,101763.26
2017-09-25T04:16:13.027Z,101763.31
2017-09-25T04:18:40.658Z,101757.52
2017-09-25T04:21:08.587Z,101759.97
2017-09-25T04:23:36.240Z,101758.63
2017-09-25T04:26:03.815Z,101754.77
2017-09-25T04:28:31.397Z,101751.70
2017-09-25T04:30:59.014Z,101748.02
2017-09-25T04:33:26.907Z,101747.59
2017-09-25T04:35:54.543Z,101755.52
2017-09-25T04:38:22.121Z,101764.33
2017-09-25T04:40:49.739Z,101767.95
2017-09-25T04:43:17.343Z,101774.31
2017-09-25T04:45:44.921Z,101771.48
2017-09-25T04:48:12.550Z,101769.63
2017-09-25T04:50:40.131Z,101768.87
2017-09-25T04:53:08.003Z,101775.45
2017-09-25T04:55:35.618Z,101780.78
2017-09-25T04:58:03.204Z,101780.78
2017-09-25T05:00:30.820Z,101779.88
2017-09-25T05:02:58.400Z,101782.50
2017-09-25T05:05:26.328Z,101775.93
2017-09-25T05:07:53.943Z,101771.95
2017-09-25T05:10:21.552Z,101768.63
2017-09-25T05:12:49.176Z,101767.69
2017-09-25T05:15:16.772Z,101768.55
2017-09-25T05:17:44.364Z,101767.53
2017-09-25T05:20:11.972Z,101775.33
2017-09-25T05:22:39.552Z,101768.97
2017-09-25T05:25:07.328Z,101767.98
2017-09-25T05:27:34.914Z,101772.17
2017-09-25T05:30:02.508Z,101770.64
2017-09-25T05:32:30.136Z,101772.37
2017-09-25T05:34:57.728Z,101768.37
2017-09-25T05:37:25.360Z,101773.22
2017-09-25T05:39:52.948Z,101769.20
2017-09-25T05:42:20.855Z,101767.53
2017-09-25T05:44:48.475Z,101767.27
2017-09-25T05:47:16.127Z,101775.28
2017-09-25T05:49:43.822Z,101775.28
2017-09-25T05:52:11.398Z,101773.66
2017-09-25T05:54:38.991Z,101769.20
2017-09-25T05:57:06.935Z,101772.59
2017-09-25T05:59:34.525Z,101770.55
2017-09-25T06:02:02.231Z,101767.41
2017-09-25T06:04:29.934Z,101766.36
2017-09-25T06:06:57.692Z,101765.41
2017-09-25T06:09:25.342Z,101775.90
2017-09-25T06:11:52.940Z,101781.98
2017-09-25T06:14:20.576Z,101781.97
2017-09-25T06:16:48.177Z,101782.30
2017-09-25T06:19:16.123Z,101787.44
2017-09-25T06:21:43.731Z,101790.03
2017-09-25T06:24:11.323Z,101789.80
2017-09-25T06:26:39.717Z,101791.78
2017-09-25T06:29:07.305Z,101799.58
2017-09-25T06:31:34.887Z,101790.94
2017-09-25T06:34:02.526Z,101784.77
2017-09-25T06:36:30.111Z,101786.93
2017-09-25T06:38:57.766Z,101788.48
2017-09-25T06:41:25.354Z,101786.48
2017-09-25T06:43:52.936Z,101783.86
2017-09-25T06:46:20.544Z,101782.27
2017-09-25T06:48:48.177Z,101785.30
2017-09-25T06:51:15.804Z,101786.63
2017-09-25T06:53:43.407Z,101782.74
2017-09-25T06:56:10.995Z,101788.74
2017-09-25T06:58:38.941Z,101796.23
2017-09-25T07:01:06.521Z,101789.80
2017-09-25T07:03:34.151Z,101788.82
2017-09-25T07:06:02.016Z,101789.68
2017-09-25T07:08:29.612Z,101793.63
2017-09-25T07:10:57.256Z,101793.08
2017-09-25T07:13:24.835Z,101799.94
2017-09-25T07:15:52.456Z,101798.91
2017-09-25T07:18:20.075Z,101804.80
2017-09-25T07:20:47.703Z,101796.03
2017-09-25T07:23:15.327Z,101800.50
2017-09-25T07:25:42.925Z,101801.07
2017-09-25T07:28:10.561Z,101799.94
2017-09-25T07:30:38.151Z,101800.98
2017-09-25T07:33:05.749Z,101797.20
2017-09-25T07:35:33.595Z,101793.83
2017-09-25T07:38:01.208Z,101797.98
2017-09-25T07:40:28.835Z,101793.53
2017-09-25T07:42:56.452Z,101802.50
2017-09-25T07:45:24.322Z,101807.70
2017-09-25T07:47:51.979Z,101809.68
2017-09-25T07:50:19.566Z,101811.00
2017-09-25T07:52:47.157Z,101814.02
2017-09-25T07:55:14.771Z,101812.61
2017-09-25T07:57:42.364Z,101813.69
2017-09-25T08:00:09.956Z,101818.17
2017-09-25T08:02:37.578Z,101819.19
2017-09-25T08:05:05.205Z,101818.67
2017-09-25T08:07:32.871Z,101816.05
2017-09-25T08:10:00.525Z,101815.12
2017-09-25T08:12:28.116Z,101813.20
2017-09-25T08:14:55.737Z,101818.73
2017-09-25T08:17:23.346Z,101812.11
2017-09-25T08:19:50.980Z,101810.59
2017-09-25T08:22:18.574Z,101813.36
2017-09-25T08:24:46.239Z,101818.03
2017-09-25T08:27:13.941Z,101815.45
2017-09-25T08:29:41.551Z,101822.26
2017-09-25T08:32:09.505Z,101822.12
2017-09-25T08:34:37.129Z,101827.63
2017-09-25T08:37:05.043Z,101828.91
2017-09-25T08:39:32.688Z,101825.69
2017-09-25T08:42:00.297Z,101830.25
2017-09-25T08:44:27.937Z,101823.43
2017-09-25T08:46:55.556Z,101819.25
2017-09-25T08:49:23.144Z,101818.98
2017-09-25T08:51:50.773Z,101821.38
2017-09-25T08:54:18.729Z,101822.21
2017-09-25T08:56:46.367Z,101831.20
2017-09-25T08:59:13.960Z,101831.36
2017-09-25T09:01:41.553Z,101831.59
2017-09-25T09:04:09.179Z,101835.12
2017-09-25T09:06:36.772Z,101834.63
2017-09-25T09:09:04.461Z,101830.28
2017-09-25T09:11:32.076Z,101830.58
2017-09-25T09:13:59.710Z,101828.06
2017-09-25T09:16:27.340Z,101830.67
2017-09-25T09:18:54.932Z,101826.56
2017-09-25T09:21:22.933Z,101827.82
2017-09-25T09:23:50.525Z,101827.64
2017-09-25T09:26:18.127Z,101827.05
2017-09-25T09:28:46.077Z,101827.46
2017-09-25T09:31:13.943Z,101829.91
2017-09-25T09:33:41.563Z,101830.78
2017-09-25T09:36:09.570Z,101830.94
2017-09-25T09:38:37.161Z,101835.54
2017-09-25T09:41:04.775Z,101832.21
2017-09-25T09:43:32.359Z,101828.38
2017-09-25T09:45:59.995Z,101827.55
2017-09-25T09:48:27.598Z,101836.03
2017-09-25T09:50:55.188Z,101838.21
2017-09-25T09:53:22.807Z,101841.00
2017-09-25T09:55:50.406Z,101842.63
2017-09-25T09:58:18.037Z,101834.50
2017-09-25T10:00:45.629Z,101836.59
2017-09-25T10:03:13.239Z,101840.54
2017-09-25T10:05:41.137Z,101841.70
2017-09-25T10:08:08.757Z,101841.95
2017-09-25T10:10:36.396Z,101835.81
2017-09-25T10:13:04.147Z,101832.70
2017-09-25T10:15:31.742Z,101832.05
2017-09-25T10:17:59.348Z,101832.53
2017-09-25T10:20:26.935Z,101836.83
2017-09-25T10:22:54.860Z,101830.46
2017-09-25T10:25:22.458Z,101837.43
2017-09-25T10:27:50.050Z,101833.87
2017-09-25T10:30:17.676Z,101828.28
2017-09-25T10:32:45.281Z,101830.28
2017-09-25T10:35:12.923Z,101831.51
2017-09-25T10:37:40.848Z,101835.66
2017-09-25T10:40:08.469Z,101831.58
2017-09-25T10:42:36.374Z,101833.95
2017-09-25T10:45:03.975Z,101830.47
2017-09-25T10:47:31.642Z,101832.41
2017-09-25T10:49:59.255Z,101833.09
2017-09-25T10:52:26.901Z,101831.58
2017-09-25T10:54:54.520Z,101829.07
2017-09-25T10:57:22.111Z,101828.58
2017-09-25T10:59:50.008Z,101827.05
2017-09-25T11:02:17.591Z,101825.32
2017-09-25T11:04:45.187Z,101827.36
2017-09-25T11:07:12.812Z,101823.37
2017-09-25T11:09:40.404Z,101829.92
2017-09-25T11:12:08.324Z,101827.23
2017-09-25T11:14:35.932Z,101825.71
2017-09-25T11:17:03.539Z,101824.81
2017-09-25T11:19:31.180Z,101823.83
2017-09-25T11:21:58.764Z,101823.83
2017-09-25T11:24:26.403Z,101820.69
2017-09-25T11:26:53.992Z,101830.46
2017-09-25T11:29:21.872Z,101822.96
2017-09-25T11:31:49.495Z,101823.64
2017-09-25T11:34:17.324Z,101823.00
2017-09-25T11:36:44.943Z,101821.32
2017-09-25T11:39:12.539Z,101817.45
2017-09-25T11:41:40.126Z,101819.05
2017-09-25T11:44:07.729Z,101809.48
2017-09-25T11:46:35.316Z,101806.75
2017-09-25T11:49:02.950Z,101812.27
2017-09-25T11:51:30.937Z,101808.80
2017-09-25T11:53:58.516Z,101801.36
2017-09-25T11:56:26.141Z,101800.89
2017-09-25T11:58:53.734Z,101799.50
2017-09-25T12:01:21.382Z,101797.00
2017-09-25T12:03:48.969Z,101801.20
2017-09-25T12:06:16.575Z,101797.69
2017-09-25T12:08:44.241Z,101797.03
2017-09-25T12:11:11.844Z,101790.02
2017-09-25T12:13:39.482Z,101789.34
2017-09-25T12:16:07.073Z,101796.58
2017-09-25T12:18:34.648Z,101793.49
2017-09-25T12:21:02.260Z,101796.72
2017-09-25T12:23:29.845Z,101798.89
2017-09-25T12:25:57.522Z,101795.06
2017-09-25T12:28:25.117Z,101802.41
2017-09-25T12:30:52.709Z,101797.08
2017-09-25T12:33:20.340Z,101801.66
2017-09-25T12:35:47.925Z,101800.70
2017-09-25T12:38:15.550Z,101806.84
2017-09-25T12:40:43.477Z,101807.73
2017-09-25T12:43:11.063Z,101807.16
2017-09-25T12:45:39.306Z,101809.39
2017-09-25T12:48:06.970Z,101809.53
2017-09-25T12:50:34.649Z,101810.60
2017-09-25T12:53:02.234Z,101808.23
2017-09-25T12:55:30.171Z,101803.34
2017-09-25T12:57:57.788Z,101806.02
2017-09-25T13:00:25.392Z,101817.13
2017-09-25T13:02:53.027Z,101808.91
2017-09-25T13:05:20.650Z,101809.95
2017-09-25T13:07:48.489Z,101812.81
2017-09-25T13:10:16.115Z,101810.02
2017-09-25T13:12:43.727Z,101811.20
2017-09-25T13:15:11.352Z,101811.19
2017-09-25T13:17:39.042Z,101810.91
2017-09-25T13:20:06.648Z,101807.55
2017-09-25T13:22:34.268Z,101814.36
2017-09-25T13:25:01.867Z,101810.69
2017-09-25T13:27:29.492Z,101825.03
2017-09-25T13:29:57.095Z,101821.64
2017-09-25T13:32:24.685Z,101817.77
2017-09-25T13:34:52.296Z,101828.28
2017-09-25T13:37:19.900Z,101822.26
2017-09-25T13:39:47.873Z,101819.20
2017-09-25T13:42:15.772Z,101826.93
2017-09-25T13:44:43.402Z,101821.22
2017-09-25T13:47:11.300Z,101827.05
2017-09-25T13:49:38.919Z,101821.98
2017-09-25T13:52:06.841Z,101823.89
2017-09-25T13:54:34.453Z,101822.16
2017-09-25T13:57:02.092Z,101813.69
2017-09-25T14:04:35.336Z,101811.96
2017-09-25T14:07:03.011Z,101806.95
2017-09-25T14:09:30.659Z,101811.86
2017-09-25T14:11:58.582Z,101811.44
2017-09-25T14:14:26.193Z,101810.48
2017-09-25T14:16:53.836Z,101812.05
2017-09-25T14:19:21.455Z,101813.41
2017-09-25T14:21:49.630Z,101816.87
2017-09-25T14:24:17.520Z,101812.55
2017-09-25T14:26:45.112Z,101816.36
2017-09-25T14:29:13.039Z,101816.16
2017-09-25T14:31:40.808Z,101812.18
2017-09-25T14:34:08.430Z,101810.00
2017-09-25T14:36:36.106Z,101808.27
2017-09-25T14:39:03.840Z,101810.88
2017-09-25T14:41:31.770Z,101811.77
2017-09-25T14:43:59.562Z,101812.62
2017-09-25T14:46:27.482Z,101808.44
2017-09-25T14:48:55.067Z,101817.93
2017-09-25T14:51:22.707Z,101825.80
2017-09-25T14:53:50.356Z,101812.50
2017-09-25T14:56:18.013Z,101815.72
2017-09-25T14:58:45.876Z,101817.58
2017-09-25T15:01:13.799Z,101827.44
2017-09-25T15:03:41.668Z,101817.55
2017-09-25T15:06:09.263Z,101819.81
2017-09-25T15:08:36.888Z,101825.05
2017-09-25T15:11:04.504Z,101833.31
2017-09-25T15:13:32.129Z,101827.73
2017-09-25T15:15:59.768Z,101824.84
2017-09-25T15:18:27.475Z,101821.94
2017-09-25T15:20:55.832Z,101825.23
2017-09-25T15:23:24.420Z,101827.75
2017-09-25T15:25:53.802Z,101831.08
2017-09-25T15:28:21.503Z,101832.11
2017-09-25T15:30:49.158Z,101830.20
2017-09-25T15:33:16.892Z,101839.05
2017-09-25T15:35:44.515Z,101840.05
2017-09-25T15:38:13.231Z,101837.71
2017-09-25T15:40:40.999Z,101846.16
2017-09-25T15:43:08.989Z,101845.45
2017-09-25T15:45:36.769Z,101846.97
2017-09-25T15:48:04.439Z,101850.91
2017-09-25T15:50:32.040Z,101848.63
2017-09-25T15:53:01.155Z,101846.48
2017-09-25T15:55:28.756Z,101851.41
2017-09-25T15:57:56.534Z,101848.85
2017-09-25T16:00:24.199Z,101854.87
2017-09-25T16:02:52.049Z,101851.02
2017-09-25T16:05:19.962Z,101850.44
2017-09-25T16:07:47.657Z,101846.64
2017-09-25T16:10:15.300Z,101856.43
2017-09-25T16:12:42.911Z,101856.25
2017-09-25T16:15:10.543Z,101853.02
2017-09-25T16:17:38.208Z,101849.94
2017-09-25T16:20:05.791Z,101850.84
2017-09-25T16:22:33.780Z,101853.20
2017-09-25T16:25:01.400Z,101862.15
2017-09-25T16:27:29.010Z,101860.30
2017-09-25T16:29:56.693Z,101861.31
2017-09-25T16:32:24.298Z,101854.58
2017-09-25T16:34:51.939Z,101860.20
2017-09-25T16:37:19.542Z,101850.34
2017-09-25T16:39:47.127Z,101856.50
2017-09-25T16:42:14.732Z,101857.84
2017-09-25T16:44:42.386Z,101861.23
2017-09-25T16:47:10.030Z,101860.58
2017-09-25T16:49:38.562Z,101857.77
2017-09-25T16:52:06.197Z,101860.58
2017-09-25T16:54:33.993Z,101863.89
2017-09-25T16:57:01.599Z,101857.25
2017-09-25T16:59:29.262Z,101857.95
2017-09-25T17:01:56.958Z,101862.16
2017-09-25T17:04:25.032Z,101863.84
2017-09-25T17:06:53.116Z,101870.13
2017-09-25T17:09:20.861Z,101864.67
2017-09-25T17:11:48.507Z,101870.98
2017-09-25T17:14:16.638Z,101879.23
2017-09-25T17:16:44.662Z,101879.41
2017-09-25T17:19:12.378Z,101879.65
2017-09-25T17:21:40.018Z,101883.66
2017-09-25T17:24:07.674Z,101881.17
2017-09-25T17:26:35.309Z,101882.42
2017-09-25T17:29:02.936Z,101884.79
2017-09-25T17:31:30.558Z,101888.47
2017-09-25T17:33:58.170Z,101894.75
2017-09-25T17:36:25.842Z,101891.49
2017-09-25T17:38:53.594Z,101888.89
2017-09-25T17:41:21.211Z,101892.98
2017-09-25T17:43:49.286Z,101895.13
2017-09-25T17:46:16.988Z,101900.73
2017-09-25T17:48:44.671Z,101903.53
2017-09-25T17:51:12.280Z,101908.33
2017-09-25T17:53:39.872Z,101903.95
2017-09-25T17:56:07.488Z,101912.86
2017-09-25T17:58:35.301Z,101911.92
2017-09-25T18:01:02.934Z,101914.92
2017-09-25T18:03:30.560Z,101918.15
2017-09-25T18:05:58.185Z,101916.05
2017-09-25T18:08:25.845Z,101918.41
2017-09-25T18:10:53.476Z,101916.72
2017-09-25T18:13:21.167Z,101917.63
2017-09-25T18:15:48.784Z,101920.41
2017-09-25T18:18:16.396Z,101923.81
2017-09-25T18:20:44.437Z,101921.64
2017-09-25T18:23:12.040Z,101919.88
2017-09-25T18:25:39.719Z,101923.29
2017-09-25T18:28:07.322Z,101920.94
2017-09-25T18:30:34.924Z,101922.62
2017-09-25T18:33:02.602Z,101929.94
2017-09-25T18:35:30.431Z,101934.87
2017-09-25T18:37:58.113Z,101932.35
2017-09-25T18:40:25.789Z,101928.30
2017-09-25T18:42:53.385Z,101932.29
2017-09-25T18:45:21.043Z,101932.08
2017-09-25T18:47:48.637Z,101932.77
2017-09-25T18:50:16.338Z,101936.03
2017-09-25T18:52:43.944Z,101931.56
2017-09-25T18:55:11.546Z,101934.30
2017-09-25T18:57:39.580Z,101940.50
2017-09-25T19:00:07.171Z,101941.30
2017-09-25T19:02:35.121Z,101936.98
2017-09-25T19:05:02.807Z,101936.45
2017-09-25T19:07:30.428Z,101937.88
2017-09-25T19:09:58.066Z,101939.13
2017-09-25T19:12:25.671Z,101943.89
2017-09-25T19:14:53.332Z,101942.96
2017-09-25T19:17:20.968Z,101940.60
2017-09-25T19:19:48.589Z,101934.38
2017-09-25T19:22:16.521Z,101936.83
2017-09-25T19:24:44.133Z,101937.08
2017-09-25T19:27:12.229Z,101938.89
2017-09-25T19:29:39.870Z,101935.63
2017-09-25T19:32:07.478Z,101940.67
2017-09-25T19:34:35.090Z,101937.23
2017-09-25T19:37:02.700Z,101942.63
2017-09-25T19:39:32.567Z,101941.14
2017-09-25T19:42:00.245Z,101936.97
2017-09-25T19:44:27.856Z,101941.00
2017-09-25T19:46:56.343Z,101939.71
2017-09-25T19:49:34.673Z,101936.52
2017-09-25T19:52:02.294Z,101935.25
2017-09-25T19:54:30.839Z,101931.31
2017-09-25T19:56:58.874Z,101939.38
2017-09-25T19:59:26.975Z,101930.33
2017-09-25T20:01:55.012Z,101938.16
2017-09-25T20:04:22.658Z,101932.39
2017-09-25T20:06:50.267Z,101936.46
2017-09-25T20:09:17.931Z,101937.03
2017-09-25T20:11:45.760Z,101939.33
2017-09-25T20:14:19.018Z,101941.27
2017-09-25T20:19:55.965Z,101931.97
2017-09-25T20:22:23.616Z,101934.33
2017-09-25T20:24:51.212Z,101936.20
2017-09-25T20:27:18.841Z,101939.06
2017-09-25T20:29:46.448Z,101941.38
2017-09-25T20:32:14.067Z,101941.05
2017-09-25T20:34:41.671Z,101942.58
2017-09-25T20:37:09.260Z,101940.30
2017-09-25T20:39:36.881Z,101942.05
2017-09-25T20:42:04.480Z,101939.88
2017-09-25T20:44:32.089Z,101939.36
2017-09-25T20:46:59.692Z,101943.95
2017-09-25T20:49:27.357Z,101941.17
2017-09-25T20:51:54.942Z,101941.86
2017-09-25T20:54:22.619Z,101942.80
2017-09-25T20:56:50.588Z,101943.06
2017-09-25T20:59:18.183Z,101941.13
2017-09-25T21:01:45.880Z,101944.02
2017-09-25T21:04:13.472Z,101941.04
2017-09-25T21:06:41.066Z,101941.55
2017-09-25T21:09:08.695Z,101935.12
2017-09-25T21:11:36.281Z,101944.04
2017-09-25T21:14:03.920Z,101937.58
2017-09-25T21:16:31.838Z,101945.39
2017-09-25T21:18:59.581Z,101945.56
2017-09-25T21:21:27.201Z,101945.39
2017-09-25T21:23:54.983Z,101948.08
2017-09-25T21:26:26.061Z,101952.36
2017-09-25T21:28:53.659Z,101947.22
2017-09-25T21:31:21.249Z,101950.77
2017-09-25T21:33:48.890Z,101941.35
2017-09-25T21:36:16.530Z,101945.98
2017-09-25T21:38:44.169Z,101944.28
2017-09-25T21:41:11.789Z,101946.91
2017-09-25T21:43:40.294Z,101942.54
2017-09-25T21:46:07.944Z,101948.42
2017-09-25T21:48:35.530Z,101944.09
2017-09-25T21:51:03.151Z,101948.25
2017-09-25T21:53:30.735Z,101947.04
2017-09-25T21:55:58.702Z,101944.85
2017-09-25T21:58:26.357Z,101945.12
2017-09-25T22:00:53.943Z,101943.56
2017-09-25T22:03:21.624Z,101941.04
2017-09-25T22:05:49.245Z,101942.14
2017-09-25T22:08:16.867Z,101945.58
2017-09-25T22:10:44.516Z,101940.95
2017-09-25T22:13:12.109Z,101943.06
2017-09-25T22:15:39.731Z,101938.77
2017-09-25T22:18:07.571Z,101941.41
2017-09-25T22:20:35.164Z,101936.72
2017-09-25T22:23:02.789Z,101939.41
2017-09-25T22:25:30.414Z,101942.98
2017-09-25T22:27:58.071Z,101935.24
2017-09-25T22:30:25.670Z,101939.38
2017-09-25T22:32:53.290Z,101938.50
2017-09-25T22:35:20.913Z,101945.22
2017-09-25T22:37:48.494Z,101942.20
2017-09-25T22:40:16.131Z,101946.09
2017-09-25T22:42:43.736Z,101945.42
2017-09-25T22:45:11.330Z,101942.40
2017-09-25T22:47:38.955Z,101941.30
2017-09-25T22:50:06.535Z,101941.28
2017-09-25T22:52:34.175Z,101945.34
2017-09-25T22:55:01.792Z,101939.53
2017-09-25T22:57:29.397Z,101942.64
2017-09-25T22:59:57.015Z,101950.70
2017-09-25T23:02:24.988Z,101947.27
2017-09-25T23:08:02.293Z,101940.61
2017-09-25T23:10:29.914Z,101942.04
2017-09-25T23:12:57.567Z,101946.19
2017-09-25T23:15:25.156Z,101947.42
2017-09-25T23:17:52.785Z,101952.27
2017-09-25T23:20:20.372Z,101948.24
2017-09-25T23:22:48.005Z,101943.45
2017-09-25T23:25:15.947Z,101947.91
2017-09-25T23:27:43.530Z,101948.08
2017-09-25T23:30:26.025Z,101948.17
2017-09-25T23:32:53.875Z,101948.55
2017-09-25T23:35:21.496Z,101948.64
2017-09-25T23:37:49.091Z,101947.84
2017-09-25T23:40:16.715Z,101951.21
2017-09-25T23:42:44.292Z,101951.67
2017-09-25T23:45:11.880Z,101950.34
2017-09-25T23:47:39.491Z,101949.78
2017-09-25T23:50:07.423Z,101950.46
2017-09-25T23:52:35.065Z,101946.52
2017-09-25T23:55:02.647Z,101945.67
2017-09-25T23:57:30.239Z,101942.56
2017-09-25T23:59:57.883Z,101948.06
